Time;durP1;ratioP1;P1;durP2;ratioP2;P2;SDS_P1;SDS_P2;PMS_P1;PMS_P2;Temp;Humidity;BMP_temperature;BMP_pressure;BME280_temperature;BME280_humidity;BME280_pressure;Samples;Min_cycle;Max_cycle;Signal;HPM_P1;HPM_P2
2022/12/09 06:44:52;;;;;;;;;;;;;;;;;;58549;19;263153995;31
2022/12/09 06:47:17;;;;;;;0.90;0.90;;;;;;;;;;7391251;19;20142;-62
2022/12/09 06:49:42;;;;;;;0.80;0.80;;;;;;;;;;7387440;19;20134;-62
2022/12/09 06:52:08;;;;;;;2.07;1.33;;;;;;;;;;7386782;19;20560;-63
2022/12/09 06:54:33;;;;;;;2.07;1.40;;;;;;;;;;7391800;19;20128;-62
2022/12/09 06:56:59;;;;;;;1.83;1.47;;;;;;;;;;7393730;19;20117;-63
2022/12/09 06:59:24;;;;;;;0.90;0.90;;;;;;;;;;7388032;19;20117;-63
2022/12/09 07:01:49;;;;;;;1.03;0.97;;;;;;;;;;7385959;19;20630;-62
2022/12/09 07:04:15;;;;;;;1.20;1.17;;;;;;;;;;7389268;19;20128;-62
2022/12/09 07:06:42;;;;;;;2.03;1.30;;;;;;;;;;7388013;19;20113;-63
2022/12/09 07:09:09;;;;;;;0.73;0.73;;;;;;;;;;7377835;19;20141;-62
2022/12/09 07:11:35;;;;;;;1.50;1.40;;;;;;;;;;7384161;19;20140;-63
2022/12/09 07:14:00;;;;;;;1.13;1.03;;;;;;;;;;7389337;19;20121;-62
2022/12/09 07:16:26;;;;;;;0.80;0.80;;;;;;;;;;7388469;19;20124;-63
2022/12/09 07:18:52;;;;;;;1.53;0.93;;;;;;;;;;7378171;19;20125;-62
2022/12/09 07:21:19;;;;;;;4.53;1.10;;;;;;;;;;7391777;19;20121;-63
2022/12/09 07:23:44;;;;;;;2.53;1.50;;;;;;;;;;7391292;19;20224;-63
2022/12/09 07:26:10;;;;;;;0.67;0.67;;;;;;;;;;7387192;19;20527;-63
2022/12/09 07:28:38;;;;;;;1.13;1.03;;;;;;;;;;7390700;19;20127;-62
2022/12/09 07:31:04;;;;;;;2.80;1.80;;;;;;;;;;7392402;19;20121;-62
2022/12/09 07:33:29;;;;;;;3.30;1.47;;;;;;;;;;7378073;19;20171;-62
2022/12/09 07:35:56;;;;;;;1.40;1.30;;;;;;;;;;7391893;19;20125;-63
2022/12/09 07:38:22;;;;;;;1.33;1.20;;;;;;;;;;7383655;19;20132;-63
2022/12/09 07:40:47;;;;;;;3.60;1.37;;;;;;;;;;7384720;19;20137;-63
2022/12/09 07:43:13;;;;;;;0.73;0.73;;;;;;;;;;7389055;19;20169;-63
2022/12/09 07:45:39;;;;;;;0.40;0.40;;;;;;;;;;7390122;19;20121;-63
2022/12/09 07:48:05;;;;;;;1.50;1.40;;;;;;;;;;7391838;19;20129;-62
2022/12/09 07:50:31;;;;;;;0.97;0.97;;;;;;;;;;7390055;19;20161;-63
2022/12/09 07:52:57;;;;;;;2.30;1.50;;;;;;;;;;7387250;19;20598;-62
2022/12/09 07:55:22;;;;;;;0.80;0.80;;;;;;;;;;7389917;19;20594;-62
2022/12/09 07:57:47;;;;;;;1.40;1.33;;;;;;;;;;7392466;19;20128;-63
2022/12/09 08:00:13;;;;;;;1.20;0.90;;;;;;;;;;7390895;19;20129;-62
2022/12/09 08:02:39;;;;;;;0.63;0.63;;;;;;;;;;7389838;19;20678;-63
2022/12/09 08:05:04;;;;;;;3.37;1.93;;;;;;;;;;7391068;19;20117;-63
2022/12/09 08:07:30;;;;;;;0.73;0.73;;;;;;;;;;7389939;19;20249;-62
2022/12/09 08:09:55;;;;;;;0.70;0.70;;;;;;;;;;7390160;19;20117;-63
2022/12/09 08:12:21;;;;;;;1.17;1.17;;;;;;;;;;7387728;19;20578;-63
2022/12/09 08:14:47;;;;;;;1.40;1.33;;;;;;;;;;7392457;19;20633;-63
2022/12/09 08:17:12;;;;;;;1.40;1.30;;;;;;;;;;7390328;19;20320;-63
2022/12/09 08:19:38;;;;;;;1.43;1.33;;;;;;;;;;7390138;19;20117;-62
2022/12/09 08:22:03;;;;;;;0.90;0.90;;;;;;;;;;7387491;19;20167;-63
2022/12/09 08:24:28;;;;;;;1.40;1.20;;;;;;;;;;7394139;19;20151;-62
2022/12/09 08:26:53;;;;;;;1.70;1.60;;;;;;;;;;7398594;19;20120;-62
2022/12/09 08:29:19;;;;;;;3.33;1.10;;;;;;;;;;7396572;19;20121;-63
2022/12/09 08:31:44;;;;;;;2.10;1.90;;;;;;;;;;7395165;19;20163;-62
2022/12/09 08:34:09;;;;;;;1.50;1.40;;;;;;;;;;7395143;19;20116;-62
2022/12/09 08:36:35;;;;;;;1.27;1.17;;;;;;;;;;7397508;19;20491;-63
2022/12/09 08:39:01;;;;;;;1.47;1.37;;;;;;;;;;7397541;19;20134;-62
2022/12/09 08:41:36;;;;;;;1.33;1.23;;;;;;;;;;7396332;19;20157;-62
2022/12/09 08:44:16;;;;;;;2.07;1.30;;;;;;;;;;7399208;19;20120;-62
2022/12/09 08:46:43;;;;;;;0.93;0.93;;;;;;;;;;7396403;19;20201;-63
2022/12/09 08:49:09;;;;;;;2.77;1.87;;;;;;;;;;7396081;19;20133;-62
2022/12/09 08:51:35;;;;;;;2.47;1.60;;;;;;;;;;7394125;19;20578;-61
2022/12/09 08:54:01;;;;;;;1.70;0.93;;;;;;;;;;7396871;19;20145;-62
2022/12/09 08:56:26;;;;;;;1.10;1.00;;;;;;;;;;7398178;19;20117;-63
2022/12/09 08:58:53;;;;;;;0.87;0.87;;;;;;;;;;7397857;19;20576;-62
2022/12/09 09:01:21;;;;;;;1.50;1.40;;;;;;;;;;7396898;19;20121;-63
2022/12/09 09:03:48;;;;;;;2.43;1.30;;;;;;;;;;7392002;19;20175;-62
2022/12/09 09:06:15;;;;;;;1.00;1.00;;;;;;;;;;7396899;19;20151;-63
2022/12/09 09:08:41;;;;;;;1.40;1.30;;;;;;;;;;7396217;19;20110;-62
2022/12/09 09:11:14;;;;;;;1.53;1.43;;;;;;;;;;7397324;19;20686;-62
2022/12/09 09:13:41;;;;;;;1.40;1.30;;;;;;;;;;7392639;19;20679;-63
2022/12/09 09:16:11;;;;;;;3.97;1.77;;;;;;;;;;7397592;19;20125;-62
2022/12/09 09:18:36;;;;;;;1.20;1.13;;;;;;;;;;7397979;19;20140;-62
2022/12/09 09:21:02;;;;;;;3.40;1.27;;;;;;;;;;7395927;19;20129;-63
2022/12/09 09:23:27;;;;;;;1.03;1.03;;;;;;;;;;7394535;19;20151;-63
2022/12/09 09:25:52;;;;;;;1.03;1.00;;;;;;;;;;7396164;19;20117;-63
2022/12/09 09:28:18;;;;;;;1.00;1.00;;;;;;;;;;7396550;19;20121;-63
2022/12/09 09:30:43;;;;;;;1.50;0.67;;;;;;;;;;7393725;19;20125;-63
2022/12/09 09:33:08;;;;;;;1.23;1.13;;;;;;;;;;7393516;19;20144;-62
2022/12/09 09:35:33;;;;;;;1.77;1.67;;;;;;;;;;7393878;19;20144;-63
2022/12/09 09:37:59;;;;;;;1.00;1.00;;;;;;;;;;7395714;19;20136;-62
2022/12/09 09:40:26;;;;;;;1.57;1.47;;;;;;;;;;7394172;19;20132;-62
2022/12/09 09:42:52;;;;;;;1.57;1.00;;;;;;;;;;7391496;19;20170;-63
2022/12/09 09:45:20;;;;;;;0.80;0.80;;;;;;;;;;7394136;19;20129;-63
2022/12/09 09:47:50;;;;;;;0.77;0.77;;;;;;;;;;7394211;19;20587;-63
2022/12/09 09:50:35;;;;;;;0.83;0.83;;;;;;;;;;7392511;19;20184;-63
2022/12/09 09:53:11;;;;;;;1.67;1.57;;;;;;;;;;7391281;19;20547;-63
2022/12/09 09:55:48;;;;;;;0.70;0.70;;;;;;;;;;7394539;19;20128;-63
2022/12/09 09:58:22;;;;;;;0.80;0.80;;;;;;;;;;7395483;19;20188;-63
2022/12/09 10:00:58;;;;;;;2.70;1.90;;;;;;;;;;7395090;19;20121;-63
2022/12/09 10:03:26;;;;;;;0.97;0.97;;;;;;;;;;7389509;19;20654;-62
2022/12/09 10:05:53;;;;;;;0.87;0.87;;;;;;;;;;7394666;19;20128;-63
2022/12/09 10:08:34;;;;;;;1.23;1.20;;;;;;;;;;7393198;19;20125;-63
2022/12/09 10:11:31;;;;;;;1.83;1.73;;;;;;;;;;7394643;19;20180;-63
2022/12/09 10:14:05;;;;;;;1.50;1.40;;;;;;;;;;7393717;19;20121;-63
2022/12/09 10:16:47;;;;;;;1.17;1.17;;;;;;;;;;7393697;19;20121;-63
2022/12/09 10:19:39;;;;;;;1.00;1.00;;;;;;;;;;7394649;19;20117;-63
2022/12/09 10:22:16;;;;;;;1.43;1.33;;;;;;;;;;7391317;19;20171;-62
2022/12/09 10:24:48;;;;;;;0.93;0.93;;;;;;;;;;7392978;19;20138;-63
2022/12/09 10:27:21;;;;;;;1.10;1.10;;;;;;;;;;7392678;19;20125;-63
2022/12/09 10:29:57;;;;;;;1.13;0.90;;;;;;;;;;7395772;19;20513;-63
2022/12/09 10:32:25;;;;;;;1.40;0.87;;;;;;;;;;7389552;19;20137;-63
2022/12/09 10:34:51;;;;;;;3.67;1.67;;;;;;;;;;7392822;19;20135;-63
2022/12/09 10:37:36;;;;;;;1.17;0.87;;;;;;;;;;7392410;19;20563;-63
2022/12/09 10:40:14;;;;;;;1.00;1.00;;;;;;;;;;7393451;19;20159;-63
2022/12/09 10:45:54;;;;;;;2.00;1.47;;;;;;;;;;7392400;19;20131;-64
2022/12/09 10:48:36;;;;;;;1.07;1.07;;;;;;;;;;7390588;19;20117;-63
2022/12/09 10:51:30;;;;;;;0.97;0.97;;;;;;;;;;7392460;19;20518;-63
2022/12/09 10:53:58;;;;;;;0.73;0.73;;;;;;;;;;7391967;19;20133;-63
2022/12/09 10:56:29;;;;;;;1.47;1.37;;;;;;;;;;7393315;19;20505;-64
2022/12/09 10:59:22;;;;;;;1.50;0.90;;;;;;;;;;7392174;19;20145;-63
2022/12/09 11:01:55;;;;;;;1.40;1.30;;;;;;;;;;7390835;19;20156;-64
2022/12/09 11:04:44;;;;;;;0.87;0.87;;;;;;;;;;7392042;19;20121;-63
2022/12/09 11:07:21;;;;;;;0.90;0.90;;;;;;;;;;7392325;19;20125;-64
2022/12/09 11:09:50;;;;;;;1.20;1.10;;;;;;;;;;7390356;19;20165;-63
2022/12/09 11:12:37;;;;;;;2.50;2.17;;;;;;;;;;7388496;19;20153;-63
2022/12/09 11:15:05;;;;;;;2.00;1.87;;;;;;;;;;7392466;19;20188;-63
2022/12/09 11:17:33;;;;;;;1.13;1.13;;;;;;;;;;7394422;19;20137;-63
2022/12/09 11:20:05;;;;;;;1.43;1.33;;;;;;;;;;7389578;19;20151;-64
2022/12/09 11:22:38;;;;;;;1.60;1.50;;;;;;;;;;7381825;19;20159;-64
2022/12/09 11:25:09;;;;;;;2.03;1.07;;;;;;;;;;7384527;19;20157;-63
2022/12/09 11:27:35;;;;;;;3.83;1.70;;;;;;;;;;7375844;19;20125;-63
2022/12/09 11:30:17;;;;;;;0.70;0.70;;;;;;;;;;7389753;19;20113;-64
2022/12/09 11:32:56;;;;;;;1.67;1.20;;;;;;;;;;7389494;19;20159;-64
2022/12/09 11:35:31;;;;;;;1.83;1.73;;;;;;;;;;7388882;19;20141;-63
2022/12/09 11:37:58;;;;;;;3.37;1.87;;;;;;;;;;7390128;19;20117;-64
2022/12/09 11:40:24;;;;;;;2.10;1.17;;;;;;;;;;7388997;19;20180;-64
2022/12/09 11:42:52;;;;;;;1.00;1.00;;;;;;;;;;7387879;19;20141;-64
2022/12/09 11:45:28;;;;;;;1.53;1.10;;;;;;;;;;7388761;19;20488;-64
2022/12/09 11:48:02;;;;;;;1.23;1.20;;;;;;;;;;7391218;19;20151;-64
2022/12/09 11:50:30;;;;;;;0.70;0.70;;;;;;;;;;7389755;19;20142;-64
2022/12/09 11:53:11;;;;;;;1.30;1.30;;;;;;;;;;7386314;19;20212;-64
2022/12/09 11:55:41;;;;;;;1.87;1.53;;;;;;;;;;7390019;19;20117;-64
2022/12/09 11:58:11;;;;;;;1.17;0.90;;;;;;;;;;7387117;19;20136;-64
2022/12/09 12:00:41;;;;;;;1.60;1.10;;;;;;;;;;7389790;19;20129;-64
2022/12/09 12:03:30;;;;;;;1.80;1.50;;;;;;;;;;7387535;19;20145;-64
2022/12/09 12:05:57;;;;;;;1.13;1.10;;;;;;;;;;7388089;19;20636;-63
2022/12/09 12:08:45;;;;;;;0.93;0.93;;;;;;;;;;7390078;19;20125;-64
2022/12/09 12:11:15;;;;;;;0.90;0.90;;;;;;;;;;7387810;19;20124;-64
2022/12/09 12:13:49;;;;;;;1.03;1.03;;;;;;;;;;7386839;19;20164;-64
2022/12/09 12:16:24;;;;;;;0.93;0.93;;;;;;;;;;7383183;19;20136;-64
2022/12/09 12:19:00;;;;;;;1.33;1.13;;;;;;;;;;7388559;19;20129;-64
2022/12/09 12:22:08;;;;;;;0.90;0.90;;;;;;;;;;7388955;19;20657;-64
2022/12/09 12:24:53;;;;;;;0.93;0.93;;;;;;;;;;7386148;19;20613;-64
2022/12/09 12:27:37;;;;;;;1.20;1.17;;;;;;;;;;7386856;19;20483;-64
2022/12/09 12:30:15;;;;;;;0.80;0.80;;;;;;;;;;7387525;19;20565;-64
2022/12/09 12:32:46;;;;;;;1.67;1.57;;;;;;;;;;7383789;19;20148;-64
2022/12/09 12:35:52;;;;;;;0.93;0.93;;;;;;;;;;7388804;19;20125;-64
2022/12/09 12:38:35;;;;;;;0.70;0.70;;;;;;;;;;7386888;19;20192;-64
2022/12/09 12:41:24;;;;;;;0.77;0.77;;;;;;;;;;7388216;19;20144;-64
2022/12/09 12:47:51;;;;;;;0.87;0.87;;;;;;;;;;7384676;19;20140;-64
2022/12/09 12:50:25;;;;;;;0.80;0.77;;;;;;;;;;7389590;19;20150;-64
2022/12/09 12:53:10;;;;;;;0.60;0.60;;;;;;;;;;7385571;19;20614;-64
2022/12/09 12:56:07;;;;;;;0.83;0.83;;;;;;;;;;7389342;19;20148;-64
2022/12/09 12:58:50;;;;;;;1.53;1.30;;;;;;;;;;7383083;19;20236;-63
2022/12/09 13:01:32;;;;;;;0.40;0.40;;;;;;;;;;7385305;19;20172;-64
2022/12/09 13:04:06;;;;;;;0.67;0.67;;;;;;;;;;7386567;19;20173;-64
2022/12/09 13:06:39;;;;;;;0.73;0.73;;;;;;;;;;7388147;19;20133;-64
2022/12/09 13:09:11;;;;;;;1.07;0.73;;;;;;;;;;7386227;19;20613;-63
2022/12/09 13:11:48;;;;;;;0.50;0.50;;;;;;;;;;7388998;19;20128;-64
2022/12/09 13:14:19;;;;;;;2.07;1.00;;;;;;;;;;7396076;19;20129;-63
2022/12/09 13:16:44;;;;;;;0.60;0.60;;;;;;;;;;7394436;19;20715;-64
2022/12/09 13:19:15;;;;;;;0.73;0.73;;;;;;;;;;7393363;19;20220;-64
2022/12/09 13:21:43;;;;;;;1.70;0.73;;;;;;;;;;7393301;19;20132;-64
2022/12/09 13:24:12;;;;;;;1.23;0.63;;;;;;;;;;7393734;19;20241;-64
2022/12/09 13:26:43;;;;;;;0.60;0.60;;;;;;;;;;7395692;19;20134;-64
2022/12/09 13:29:53;;;;;;;1.30;1.20;;;;;;;;;;7392785;19;20143;-64
2022/12/09 13:32:21;;;;;;;0.80;0.80;;;;;;;;;;7390180;19;20696;-63
2022/12/09 13:34:53;;;;;;;1.80;0.97;;;;;;;;;;7393806;19;20151;-64
2022/12/09 13:37:36;;;;;;;1.53;1.43;;;;;;;;;;7395586;19;20134;-64
2022/12/09 13:40:27;;;;;;;0.50;0.50;;;;;;;;;;7392702;19;20145;-64
2022/12/09 13:43:17;;;;;;;1.87;1.00;;;;;;;;;;7387858;19;20638;-64
2022/12/09 13:45:42;;;;;;;1.90;0.50;;;;;;;;;;7394120;19;20121;-64
2022/12/09 13:48:10;;;;;;;1.07;1.00;;;;;;;;;;7393851;19;20586;-63
2022/12/09 13:50:47;;;;;;;0.73;0.73;;;;;;;;;;7393196;19;20566;-63
2022/12/09 13:53:19;;;;;;;1.43;1.20;;;;;;;;;;7389811;19;20496;-64
2022/12/09 13:56:07;;;;;;;1.17;1.10;;;;;;;;;;7394627;19;20129;-64
2022/12/09 13:59:04;;;;;;;0.53;0.53;;;;;;;;;;7392643;19;20125;-64
2022/12/09 14:01:53;;;;;;;0.70;0.70;;;;;;;;;;7392818;19;20174;-64
2022/12/09 14:04:25;;;;;;;0.70;0.70;;;;;;;;;;7382024;19;20117;-63
2022/12/09 14:06:56;;;;;;;1.00;1.00;;;;;;;;;;7375605;19;20157;-64
2022/12/09 14:09:42;;;;;;;0.50;0.50;;;;;;;;;;7382226;19;20154;-64
2022/12/09 14:12:35;;;;;;;0.67;0.67;;;;;;;;;;7384384;19;20611;-63
2022/12/09 14:15:24;;;;;;;0.90;0.87;;;;;;;;;;7378231;19;20452;-63
2022/12/09 14:17:49;;;;;;;0.90;0.90;;;;;;;;;;7370058;19;20148;-63
2022/12/09 14:20:24;;;;;;;1.00;1.00;;;;;;;;;;7377140;19;20597;-63
2022/12/09 14:23:12;;;;;;;1.17;1.07;;;;;;;;;;7376916;19;20181;-63
2022/12/09 14:26:00;;;;;;;1.90;1.20;;;;;;;;;;7384086;19;20124;-63
2022/12/09 14:28:31;;;;;;;4.33;1.17;;;;;;;;;;7375044;19;20117;-63
2022/12/09 14:30:59;;;;;;;0.73;0.73;;;;;;;;;;7385678;19;20145;-63
2022/12/09 14:33:37;;;;;;;1.17;1.07;;;;;;;;;;7380959;19;20145;-63
2022/12/09 14:36:11;;;;;;;0.53;0.53;;;;;;;;;;7384257;19;20158;-63
2022/12/09 14:38:58;;;;;;;0.80;0.80;;;;;;;;;;7390395;19;20129;-63
2022/12/09 14:41:48;;;;;;;0.50;0.50;;;;;;;;;;7392425;19;20125;-63
2022/12/09 14:44:50;;;;;;;0.67;0.67;;;;;;;;;;7389579;19;20133;-63
2022/12/09 14:47:20;;;;;;;1.00;1.00;;;;;;;;;;7390515;19;20124;-63
2022/12/09 14:49:45;;;;;;;0.60;0.60;;;;;;;;;;7381334;19;20164;-63
2022/12/09 14:52:20;;;;;;;1.67;1.57;;;;;;;;;;7385992;19;20140;-63
2022/12/09 14:54:46;;;;;;;0.77;0.70;;;;;;;;;;7390056;19;20156;-63
2022/12/09 14:57:27;;;;;;;1.13;1.13;;;;;;;;;;7389325;19;20536;-63
2022/12/09 14:59:54;;;;;;;1.23;1.13;;;;;;;;;;7389546;19;20192;-63
2022/12/09 15:02:24;;;;;;;0.60;0.60;;;;;;;;;;7389342;19;20184;-63
2022/12/09 15:04:51;;;;;;;0.43;0.43;;;;;;;;;;7388992;19;20144;-63
2022/12/09 15:07:43;;;;;;;0.80;0.80;;;;;;;;;;7390908;19;20532;-63
2022/12/09 15:10:30;;;;;;;0.60;0.60;;;;;;;;;;7388666;19;20157;-63
2022/12/09 15:12:56;;;;;;;0.70;0.70;;;;;;;;;;7389957;19;20137;-63
2022/12/09 15:15:35;;;;;;;0.80;0.80;;;;;;;;;;7391120;19;20657;-63
2022/12/09 15:18:06;;;;;;;0.57;0.57;;;;;;;;;;7389754;19;20143;-63
2022/12/09 15:20:34;;;;;;;1.33;1.00;;;;;;;;;;7389291;19;20155;-63
2022/12/09 15:23:22;;;;;;;0.77;0.77;;;;;;;;;;7377456;19;20164;-63
2022/12/09 15:25:50;;;;;;;0.60;0.60;;;;;;;;;;7388948;19;20212;-64
2022/12/09 15:28:24;;;;;;;0.43;0.40;;;;;;;;;;7381219;19;20241;-63
2022/12/09 15:31:15;;;;;;;1.13;1.13;;;;;;;;;;7383855;19;20522;-64
2022/12/09 15:33:42;;;;;;;0.60;0.60;;;;;;;;;;7384347;19;20165;-63
2022/12/09 15:36:11;;;;;;;2.57;1.00;;;;;;;;;;7386205;19;20128;-63
2022/12/09 15:38:48;;;;;;;0.50;0.50;;;;;;;;;;7386906;19;20113;-63
2022/12/09 15:44:05;;;;;;;1.90;1.30;;;;;;;;;;7383042;19;20127;-63
2022/12/09 15:46:31;;;;;;;0.60;0.60;;;;;;;;;;7381145;19;20121;-63
2022/12/09 15:48:58;;;;;;;1.50;0.90;;;;;;;;;;7385446;19;20594;-64
2022/12/09 15:51:25;;;;;;;1.00;1.00;;;;;;;;;;7382919;19;20212;-63
2022/12/09 15:53:57;;;;;;;0.50;0.50;;;;;;;;;;7376980;19;20617;-63
2022/12/09 15:56:25;;;;;;;1.17;1.03;;;;;;;;;;7385795;19;20129;-63
2022/12/09 15:58:52;;;;;;;1.10;1.00;;;;;;;;;;7385847;19;20136;-63
2022/12/09 16:01:23;;;;;;;1.67;1.57;;;;;;;;;;7379261;19;20484;-64
2022/12/09 16:03:50;;;;;;;2.17;1.23;;;;;;;;;;7379031;19;20121;-63
2022/12/09 16:06:23;;;;;;;0.60;0.60;;;;;;;;;;7379823;19;20117;-63
2022/12/09 16:08:49;;;;;;;0.83;0.83;;;;;;;;;;7382995;19;20129;-64
2022/12/09 16:11:33;;;;;;;0.63;0.63;;;;;;;;;;7377734;19;20196;-64
2022/12/09 16:14:00;;;;;;;0.40;0.40;;;;;;;;;;7384437;19;20192;-64
2022/12/09 16:16:32;;;;;;;0.87;0.87;;;;;;;;;;7387037;19;20142;-64
2022/12/09 16:18:57;;;;;;;1.27;1.17;;;;;;;;;;7369868;19;20135;-64
2022/12/09 16:21:33;;;;;;;0.90;0.90;;;;;;;;;;7377563;19;20462;-64
2022/12/09 16:24:06;;;;;;;1.10;1.10;;;;;;;;;;7370025;19;20128;-64
2022/12/09 16:26:35;;;;;;;0.70;0.70;;;;;;;;;;7371035;19;20228;-64
2022/12/09 16:29:04;;;;;;;0.63;0.63;;;;;;;;;;7365419;19;20121;-64
2022/12/09 16:31:29;;;;;;;0.70;0.70;;;;;;;;;;7372805;19;20125;-64
2022/12/09 16:33:55;;;;;;;0.50;0.50;;;;;;;;;;7375369;19;20531;-64
2022/12/09 16:36:26;;;;;;;2.30;1.20;;;;;;;;;;7375086;19;20117;-63
2022/12/09 16:39:06;;;;;;;0.63;0.63;;;;;;;;;;7378882;19;20128;-64
2022/12/09 16:41:50;;;;;;;0.97;0.97;;;;;;;;;;7377109;19;20446;-63
2022/12/09 16:44:19;;;;;;;3.73;1.60;;;;;;;;;;7387676;19;20134;-64
2022/12/09 16:46:44;;;;;;;1.00;1.00;;;;;;;;;;7382743;19;20145;-64
2022/12/09 16:49:09;;;;;;;0.77;0.77;;;;;;;;;;7387020;19;20131;-63
2022/12/09 16:51:36;;;;;;;1.13;0.90;;;;;;;;;;7394676;19;20126;-64
2022/12/09 16:54:02;;;;;;;1.23;1.13;;;;;;;;;;7381848;19;20882;-64
2022/12/09 16:56:29;;;;;;;1.13;0.83;;;;;;;;;;7392291;19;20196;-64
2022/12/09 16:58:55;;;;;;;0.57;0.57;;;;;;;;;;7388710;19;20136;-64
2022/12/09 17:01:25;;;;;;;1.30;1.20;;;;;;;;;;7377269;19;20121;-64
2022/12/09 17:04:08;;;;;;;0.70;0.70;;;;;;;;;;7378947;19;20868;-63
2022/12/09 17:06:33;;;;;;;1.43;0.40;;;;;;;;;;7375835;19;20121;-63
2022/12/09 17:08:59;;;;;;;1.10;1.10;;;;;;;;;;7370125;19;21375;-64
2022/12/09 17:11:24;;;;;;;0.70;0.70;;;;;;;;;;7376185;19;20128;-63
2022/12/09 17:13:49;;;;;;;0.93;0.93;;;;;;;;;;7379079;19;20129;-63
2022/12/09 17:16:15;;;;;;;0.70;0.70;;;;;;;;;;7381295;19;20483;-63
2022/12/09 17:18:41;;;;;;;1.93;0.83;;;;;;;;;;7374554;19;20125;-64
2022/12/09 17:21:11;;;;;;;0.70;0.70;;;;;;;;;;7374362;19;20761;-64
2022/12/09 17:23:37;;;;;;;1.33;1.10;;;;;;;;;;7369823;19;20162;-64
2022/12/09 17:26:04;;;;;;;0.70;0.70;;;;;;;;;;7380588;19;20125;-64
2022/12/09 17:28:30;;;;;;;0.80;0.80;;;;;;;;;;7379482;19;20144;-64
2022/12/09 17:30:56;;;;;;;0.87;0.80;;;;;;;;;;7378113;19;20203;-64
2022/12/09 17:33:26;;;;;;;0.67;0.67;;;;;;;;;;7368887;19;20625;-64
2022/12/09 17:35:52;;;;;;;0.47;0.47;;;;;;;;;;7364460;19;20117;-63
2022/12/09 17:38:17;;;;;;;1.40;1.30;;;;;;;;;;7374239;19;20147;-63
2022/12/09 17:40:43;;;;;;;0.53;0.53;;;;;;;;;;7382487;19;20138;-64
2022/12/09 17:43:08;;;;;;;0.70;0.70;;;;;;;;;;7363331;19;20163;-64
2022/12/09 17:45:33;;;;;;;0.60;0.60;;;;;;;;;;7382680;19;20128;-64
2022/12/09 17:47:58;;;;;;;0.80;0.80;;;;;;;;;;7380899;19;20113;-64
2022/12/09 17:50:24;;;;;;;4.17;1.63;;;;;;;;;;7384845;19;20109;-64
2022/12/09 17:52:49;;;;;;;1.10;1.00;;;;;;;;;;7380262;19;20164;-64
2022/12/09 17:55:14;;;;;;;1.40;0.87;;;;;;;;;;7389698;19;20590;-64
2022/12/09 17:57:40;;;;;;;0.90;0.80;;;;;;;;;;7390438;19;20752;-64
2022/12/09 18:00:06;;;;;;;0.90;0.80;;;;;;;;;;7380624;19;20117;-64
2022/12/09 18:02:31;;;;;;;0.50;0.50;;;;;;;;;;7377262;19;20642;-64
2022/12/09 18:04:57;;;;;;;0.43;0.43;;;;;;;;;;7389001;19;20191;-64
2022/12/09 18:07:22;;;;;;;1.03;1.03;;;;;;;;;;7384990;19;20142;-63
2022/12/09 18:09:47;;;;;;;0.73;0.73;;;;;;;;;;7390699;19;20140;-63
2022/12/09 18:12:12;;;;;;;0.80;0.80;;;;;;;;;;7391499;19;20174;-63
2022/12/09 18:14:38;;;;;;;0.80;0.80;;;;;;;;;;7385243;19;20125;-64
2022/12/09 18:17:03;;;;;;;0.60;0.60;;;;;;;;;;7386540;19;20117;-63
2022/12/09 18:19:29;;;;;;;1.60;1.50;;;;;;;;;;7391956;19;20125;-63
2022/12/09 18:21:54;;;;;;;1.17;1.13;;;;;;;;;;7386550;19;20511;-63
2022/12/09 18:24:20;;;;;;;0.57;0.57;;;;;;;;;;7382080;19;20133;-63
2022/12/09 18:26:45;;;;;;;2.00;0.97;;;;;;;;;;7386417;19;20121;-63
2022/12/09 18:29:11;;;;;;;1.13;1.03;;;;;;;;;;7379449;19;20689;-63
2022/12/09 18:31:37;;;;;;;0.60;0.60;;;;;;;;;;7378925;19;20586;-63
2022/12/09 18:34:02;;;;;;;2.70;1.63;;;;;;;;;;7389207;19;20610;-63
2022/12/09 18:36:28;;;;;;;0.93;0.93;;;;;;;;;;7393215;19;20185;-64
2022/12/09 18:38:54;;;;;;;1.87;1.10;;;;;;;;;;7388750;19;20125;-63
2022/12/09 18:41:21;;;;;;;0.60;0.60;;;;;;;;;;7386766;19;20128;-64
2022/12/09 18:43:49;;;;;;;0.60;0.60;;;;;;;;;;7376818;19;20140;-63
2022/12/09 18:46:19;;;;;;;1.43;1.30;;;;;;;;;;7392521;19;20204;-64
2022/12/09 18:48:44;;;;;;;1.20;0.60;;;;;;;;;;7388193;19;20140;-64
2022/12/09 18:51:15;;;;;;;0.97;0.70;;;;;;;;;;7391604;19;20307;-64
2022/12/09 18:53:40;;;;;;;1.37;1.13;;;;;;;;;;7360190;19;20145;-63
2022/12/09 18:56:06;;;;;;;0.63;0.63;;;;;;;;;;7377033;19;20128;-63
2022/12/09 18:58:31;;;;;;;0.70;0.70;;;;;;;;;;7365967;19;20517;-63
2022/12/09 19:00:56;;;;;;;0.43;0.43;;;;;;;;;;7368955;19;20470;-63
2022/12/09 19:03:22;;;;;;;0.60;0.60;;;;;;;;;;7377926;19;20152;-63
2022/12/09 19:05:48;;;;;;;0.47;0.40;;;;;;;;;;7380307;19;20479;-63
2022/12/09 19:08:13;;;;;;;0.93;0.90;;;;;;;;;;7371569;19;20193;-63
2022/12/09 19:10:38;;;;;;;1.00;1.00;;;;;;;;;;7370883;19;20121;-63
2022/12/09 19:13:04;;;;;;;0.57;0.57;;;;;;;;;;7369114;19;20162;-64
2022/12/09 19:15:29;;;;;;;1.33;1.23;;;;;;;;;;7376378;19;20119;-64
2022/12/09 19:17:55;;;;;;;0.60;0.60;;;;;;;;;;7378334;19;20142;-64
2022/12/09 19:20:20;;;;;;;1.30;1.20;;;;;;;;;;7381849;19;20125;-64
2022/12/09 19:22:45;;;;;;;0.80;0.80;;;;;;;;;;7380477;19;20145;-64
2022/12/09 19:25:11;;;;;;;0.50;0.50;;;;;;;;;;7375724;19;20128;-63
2022/12/09 19:27:36;;;;;;;1.00;0.87;;;;;;;;;;7382145;19;20117;-64
2022/12/09 19:30:03;;;;;;;1.87;0.97;;;;;;;;;;7381980;19;20143;-64
2022/12/09 19:32:28;;;;;;;0.83;0.83;;;;;;;;;;7384275;19;20644;-63
2022/12/09 19:34:53;;;;;;;0.63;0.63;;;;;;;;;;7384615;19;20192;-64
2022/12/09 19:37:19;;;;;;;1.37;0.90;;;;;;;;;;7381747;19;20141;-63
2022/12/09 19:39:45;;;;;;;0.80;0.80;;;;;;;;;;7382559;19;20467;-63
2022/12/09 19:42:10;;;;;;;0.93;0.93;;;;;;;;;;7366891;19;20144;-63
2022/12/09 19:44:36;;;;;;;0.90;0.90;;;;;;;;;;7383624;19;20124;-63
2022/12/09 19:47:01;;;;;;;1.00;1.00;;;;;;;;;;7387805;19;20138;-63
2022/12/09 19:49:27;;;;;;;0.73;0.73;;;;;;;;;;7387483;19;20152;-63
2022/12/09 19:51:52;;;;;;;0.60;0.60;;;;;;;;;;7381443;19;20510;-64
2022/12/09 19:54:18;;;;;;;0.53;0.53;;;;;;;;;;7379546;19;20121;-64
2022/12/09 19:56:44;;;;;;;0.77;0.77;;;;;;;;;;7365319;19;20419;-63
2022/12/09 19:59:09;;;;;;;0.83;0.70;;;;;;;;;;7372021;19;20121;-64
2022/12/09 20:01:37;;;;;;;1.37;1.07;;;;;;;;;;7372066;19;20113;-64
2022/12/09 20:04:12;;;;;;;0.50;0.50;;;;;;;;;;7358512;19;20150;-64
2022/12/09 20:06:37;;;;;;;0.87;0.87;;;;;;;;;;7360278;19;20429;-64
2022/12/09 20:09:04;;;;;;;0.50;0.50;;;;;;;;;;7375177;19;20121;-63
2022/12/09 20:11:30;;;;;;;0.50;0.50;;;;;;;;;;7386101;19;20125;-64
2022/12/09 20:14:00;;;;;;;0.50;0.50;;;;;;;;;;7360497;19;20514;-64
2022/12/09 20:16:26;;;;;;;0.47;0.47;;;;;;;;;;7370174;19;20475;-64
2022/12/09 20:18:53;;;;;;;1.17;1.17;;;;;;;;;;7354563;19;20125;-64
2022/12/09 20:21:19;;;;;;;0.60;0.60;;;;;;;;;;7368725;19;20129;-63
2022/12/09 20:23:46;;;;;;;0.57;0.57;;;;;;;;;;7371432;19;20590;-63
2022/12/09 20:26:16;;;;;;;1.27;0.63;;;;;;;;;;7359772;19;20121;-63
2022/12/09 20:28:43;;;;;;;0.73;0.73;;;;;;;;;;7362250;19;20144;-64
2022/12/09 20:31:11;;;;;;;0.63;0.63;;;;;;;;;;7367532;19;20125;-64
2022/12/09 20:33:37;;;;;;;1.07;1.07;;;;;;;;;;7364011;19;20705;-64
2022/12/09 20:36:07;;;;;;;0.83;0.83;;;;;;;;;;7371151;19;20113;-63
2022/12/09 20:38:33;;;;;;;1.37;0.63;;;;;;;;;;7376625;19;20192;-64
2022/12/09 20:41:04;;;;;;;0.53;0.53;;;;;;;;;;7371767;19;20155;-63
2022/12/09 20:43:29;;;;;;;0.57;0.57;;;;;;;;;;7354752;19;20149;-64
2022/12/09 20:45:55;;;;;;;1.23;1.13;;;;;;;;;;7374739;19;20504;-64
2022/12/09 20:48:20;;;;;;;0.40;0.40;;;;;;;;;;7379880;19;20143;-63
2022/12/09 20:50:45;;;;;;;0.70;0.70;;;;;;;;;;7384347;19;20473;-64
2022/12/09 20:53:10;;;;;;;1.03;1.00;;;;;;;;;;7379395;19;20166;-64
2022/12/09 20:55:36;;;;;;;0.67;0.67;;;;;;;;;;7384155;19;20128;-63
2022/12/09 20:58:01;;;;;;;0.97;0.97;;;;;;;;;;7382187;19;20125;-64
2022/12/09 21:00:26;;;;;;;0.40;0.40;;;;;;;;;;7380167;19;20117;-63
2022/12/09 21:02:52;;;;;;;0.63;0.50;;;;;;;;;;7370079;19;20512;-64
2022/12/09 21:05:17;;;;;;;0.73;0.73;;;;;;;;;;7377378;19;20121;-63
2022/12/09 21:07:42;;;;;;;0.90;0.90;;;;;;;;;;7380790;19;20129;-63
2022/12/09 21:10:08;;;;;;;0.70;0.70;;;;;;;;;;7377193;19;20137;-64
2022/12/09 21:12:34;;;;;;;0.60;0.60;;;;;;;;;;7365303;19;20156;-63
2022/12/09 21:14:59;;;;;;;1.30;1.30;;;;;;;;;;7378199;19;20117;-64
2022/12/09 21:17:24;;;;;;;0.83;0.83;;;;;;;;;;7366903;19;20197;-63
2022/12/09 21:19:50;;;;;;;0.80;0.80;;;;;;;;;;7384021;19;20468;-62
2022/12/09 21:22:15;;;;;;;1.60;1.00;;;;;;;;;;7362811;19;20172;-63
2022/12/09 21:24:40;;;;;;;1.00;0.97;;;;;;;;;;7363692;19;20871;-62
2022/12/09 21:27:05;;;;;;;0.40;0.40;;;;;;;;;;7371884;19;20125;-63
2022/12/09 21:29:31;;;;;;;0.50;0.50;;;;;;;;;;7367555;19;20132;-63
2022/12/09 21:31:56;;;;;;;1.00;1.00;;;;;;;;;;7369935;19;20157;-62
2022/12/09 21:34:23;;;;;;;0.60;0.60;;;;;;;;;;7376697;19;20117;-62
2022/12/09 21:36:49;;;;;;;0.50;0.50;;;;;;;;;;7378169;19;20902;-62
2022/12/09 21:39:14;;;;;;;0.80;0.80;;;;;;;;;;7389115;19;20121;-62
2022/12/09 21:41:40;;;;;;;0.73;0.73;;;;;;;;;;7388356;19;20146;-62
2022/12/09 21:44:06;;;;;;;1.20;1.10;;;;;;;;;;7381744;19;20125;-62
2022/12/09 21:46:34;;;;;;;1.30;1.23;;;;;;;;;;7385156;19;20208;-62
2022/12/09 21:49:01;;;;;;;0.40;0.40;;;;;;;;;;7383807;19;20129;-63
2022/12/09 21:51:26;;;;;;;0.80;0.80;;;;;;;;;;7388389;19;20161;-62
2022/12/09 21:53:52;;;;;;;0.90;0.90;;;;;;;;;;7383683;19;20808;-62
2022/12/09 21:56:20;;;;;;;1.33;0.77;;;;;;;;;;7389737;19;20125;-63